Time;durP1;ratioP1;P1;durP2;ratioP2;P2;SDS_P1;SDS_P2;PMS_P1;PMS_P2;Temp;Humidity;BMP_temperature;BMP_pressure;BME280_temperature;BME280_humidity;BME280_pressure;Samples;Min_cycle;Max_cycle;Signal;HPM_P1;HPM_P2
2021/08/18 00:01:22;;;;;;;27.48;20.55;;;16.30;94.20;;;;;;5086771;28;20504;-75
2021/08/18 00:03:48;;;;;;;23.23;19.05;;;16.30;94.20;;;;;;5072727;28;20032;-75
2021/08/18 00:06:13;;;;;;;30.75;20.33;;;16.30;94.20;;;;;;5091592;28;20418;-75
2021/08/18 00:08:44;;;;;;;23.17;17.05;;;16.30;94.20;;;;;;5065066;28;20082;-75
2021/08/18 00:11:10;;;;;;;24.25;16.98;;;16.30;94.20;;;;;;5057231;28;20029;-75
2021/08/18 00:13:36;;;;;;;20.05;15.30;;;16.30;94.10;;;;;;5097121;28;20028;-75
2021/08/18 00:16:02;;;;;;;20.92;15.43;;;16.30;94.10;;;;;;5108031;28;20027;-75
2021/08/18 00:18:27;;;;;;;15.73;13.70;;;16.30;94.10;;;;;;5083943;28;20082;-75
2021/08/18 00:20:54;;;;;;;16.17;12.65;;;16.30;94.10;;;;;;5079058;28;20044;-75
2021/08/18 00:23:20;;;;;;;15.48;12.18;;;16.20;94.10;;;;;;5091924;28;20027;-75
2021/08/18 00:25:45;;;;;;;12.18;10.88;;;16.20;94.10;;;;;;5068580;28;20039;-75
2021/08/18 00:28:11;;;;;;;12.25;10.55;;;16.20;94.10;;;;;;5071259;28;20060;-75
2021/08/18 00:30:37;;;;;;;12.18;9.45;;;16.20;94.10;;;;;;5055700;28;20051;-75
2021/08/18 00:33:03;;;;;;;12.55;9.80;;;16.20;94.10;;;;;;5064590;28;20032;-75
2021/08/18 00:35:29;;;;;;;14.73;10.02;;;16.20;94.00;;;;;;5094237;28;20028;-75
2021/08/18 00:37:55;;;;;;;11.15;8.32;;;16.20;94.00;;;;;;5093875;28;20024;-75
2021/08/18 00:40:21;;;;;;;12.02;8.15;;;16.20;94.10;;;;;;5088535;28;20119;-75
2021/08/18 00:42:47;;;;;;;8.55;6.90;;;16.20;94.10;;;;;;5085554;28;20381;-75
2021/08/18 00:45:14;;;;;;;13.68;8.13;;;16.20;94.10;;;;;;5085608;28;20027;-75
2021/08/18 00:47:49;;;;;;;9.00;6.68;;;16.20;94.10;;;;;;5076136;28;20025;-75
2021/08/18 00:50:21;;;;;;;9.27;6.28;;;16.20;94.10;;;;;;5066981;28;20452;-75
2021/08/18 00:52:47;;;;;;;8.60;6.28;;;16.20;94.00;;;;;;5103799;28;20495;-75
2021/08/18 00:55:15;;;;;;;9.88;6.18;;;16.20;94.00;;;;;;5093091;28;20024;-74
2021/08/18 00:57:41;;;;;;;6.30;5.47;;;16.20;94.00;;;;;;5059268;28;20034;-74
2021/08/18 01:00:09;;;;;;;8.57;7.00;;;16.20;94.00;;;;;;5055318;28;20027;-74
2021/08/18 01:02:38;;;;;;;15.57;8.43;;;16.20;94.00;;;;;;5060831;28;20069;-74
2021/08/18 01:05:11;;;;;;;9.95;7.03;;;16.20;94.00;;;;;;5063446;28;20028;-75
2021/08/18 01:07:37;;;;;;;8.13;6.90;;;16.20;94.00;;;;;;5063364;28;20491;-74
2021/08/18 01:10:05;;;;;;;10.13;7.93;;;16.20;94.00;;;;;;5090740;28;20107;-74
2021/08/18 01:12:33;;;;;;;12.32;9.18;;;16.20;94.00;;;;;;5077241;28;20032;-74
2021/08/18 01:15:00;;;;;;;13.18;10.95;;;16.20;94.00;;;;;;5074747;28;20048;-75
2021/08/18 01:17:33;;;;;;;26.30;15.65;;;16.20;94.00;;;;;;5040645;28;20392;-74
2021/08/18 01:19:59;;;;;;;37.05;17.40;;;16.20;94.10;;;;;;5076558;28;20037;-74
2021/08/18 01:22:25;;;;;;;16.05;13.55;;;16.20;94.10;;;;;;5056366;28;20032;-74
2021/08/18 01:24:51;;;;;;;20.00;14.52;;;16.20;94.10;;;;;;5077823;28;20036;-74
2021/08/18 01:27:18;;;;;;;21.42;16.98;;;16.20;94.20;;;;;;5065972;28;20032;-74
2021/08/18 01:29:43;;;;;;;23.15;16.75;;;16.20;94.40;;;;;;5094680;28;20042;-74
2021/08/18 01:32:09;;;;;;;21.83;15.90;;;16.20;94.20;;;;;;5074224;28;20017;-74
2021/08/18 01:34:36;;;;;;;25.63;18.20;;;16.20;94.20;;;;;;5059101;28;20032;-75
2021/08/18 01:37:03;;;;;;;32.72;22.35;;;16.20;94.20;;;;;;5093272;28;20060;-75
2021/08/18 01:39:29;;;;;;;20.25;17.13;;;16.20;94.20;;;;;;5039622;28;20035;-75
2021/08/18 01:41:54;;;;;;;21.00;16.73;;;16.20;94.20;;;;;;5082105;28;20028;-77
2021/08/18 01:44:20;;;;;;;23.98;18.88;;;16.30;94.20;;;;;;5085070;28;20051;-77
2021/08/18 01:46:46;;;;;;;26.63;19.88;;;16.20;94.20;;;;;;5056727;28;20373;-77
2021/08/18 01:49:11;;;;;;;23.02;17.92;;;16.20;94.20;;;;;;5075195;28;20032;-77
2021/08/18 01:51:37;;;;;;;35.95;21.42;;;16.20;94.20;;;;;;5080709;28;20027;-77
2021/08/18 01:54:03;;;;;;;36.22;22.48;;;16.30;94.20;;;;;;5095444;28;20454;-77
2021/08/18 01:56:28;;;;;;;24.33;18.33;;;16.20;94.20;;;;;;5067098;28;20035;-76
2021/08/18 01:58:54;;;;;;;23.80;18.30;;;16.30;94.20;;;;;;5079154;28;20111;-77
2021/08/18 02:01:21;;;;;;;19.58;15.18;;;16.30;94.20;;;;;;5104784;28;20103;-76
2021/08/18 02:03:49;;;;;;;23.23;16.27;;;16.20;94.20;;;;;;5099259;28;20090;-74
2021/08/18 02:06:15;;;;;;;16.55;13.48;;;16.20;94.20;;;;;;5060738;28;20028;-74
2021/08/18 02:08:41;;;;;;;21.17;16.17;;;16.20;94.20;;;;;;5056154;28;20488;-74
2021/08/18 02:11:06;;;;;;;22.20;17.20;;;16.30;94.20;;;;;;5077582;28;20592;-74
2021/08/18 02:13:34;;;;;;;18.55;15.77;;;16.30;94.20;;;;;;5083443;28;20534;-73
2021/08/18 02:16:00;;;;;;;21.40;17.40;;;16.30;94.20;;;;;;5095381;28;20487;-74
2021/08/18 02:18:26;;;;;;;22.98;15.73;;;16.30;94.50;;;;;;5074369;28;20032;-73
2021/08/18 02:20:51;;;;;;;23.58;17.50;;;16.30;94.20;;;;;;5081649;28;20027;-74
2021/08/18 02:23:17;;;;;;;17.73;14.60;;;16.30;94.20;;;;;;5057008;28;20086;-74
2021/08/18 02:25:43;;;;;;;25.33;18.00;;;16.30;94.20;;;;;;5073128;28;20040;-74
2021/08/18 02:28:10;;;;;;;23.85;18.23;;;16.30;94.20;;;;;;5088779;28;20106;-74
2021/08/18 02:30:36;;;;;;;26.65;19.27;;;16.30;94.30;;;;;;5077886;28;20033;-74
2021/08/18 02:33:02;;;;;;;27.25;18.42;;;16.30;94.30;;;;;;5091399;28;20029;-74
2021/08/18 02:35:28;;;;;;;24.20;17.45;;;16.30;94.30;;;;;;5075972;28;20020;-74
2021/08/18 02:37:56;;;;;;;21.45;17.38;;;16.30;94.30;;;;;;5103074;28;20120;-74
2021/08/18 02:40:22;;;;;;;26.98;19.13;;;16.30;94.30;;;;;;5070453;28;20024;-74
2021/08/18 02:42:54;;;;;;;22.48;17.85;;;16.30;94.40;;;;;;5079343;28;20029;-74
2021/08/18 02:45:21;;;;;;;24.25;18.35;;;16.30;94.40;;;;;;5082556;28;20028;-74
2021/08/18 02:47:48;;;;;;;20.10;16.67;;;16.30;94.40;;;;;;5076343;28;20035;-74
2021/08/18 02:50:15;;;;;;;23.98;19.02;;;16.30;94.40;;;;;;5114236;28;20091;-74
2021/08/18 02:52:41;;;;;;;27.15;20.27;;;16.30;94.40;;;;;;5091416;28;20036;-74
2021/08/18 02:55:07;;;;;;;30.85;18.83;;;16.30;94.50;;;;;;5065948;28;20025;-74
2021/08/18 02:57:32;;;;;;;24.55;18.33;;;16.30;94.40;;;;;;5066785;28;20036;-74
2021/08/18 02:59:58;;;;;;;23.25;16.83;;;16.40;94.50;;;;;;5074571;28;20035;-74
2021/08/18 03:02:25;;;;;;;30.45;21.48;;;16.40;94.40;;;;;;5081729;28;20036;-74
2021/08/18 03:04:51;;;;;;;25.60;18.52;;;16.30;94.40;;;;;;5073776;28;20056;-74
2021/08/18 03:07:16;;;;;;;26.70;19.45;;;16.40;94.40;;;;;;5058694;28;20055;-74
2021/08/18 03:09:42;;;;;;;39.45;22.77;;;16.40;94.50;;;;;;5092840;28;20043;-74
2021/08/18 03:12:08;;;;;;;27.20;19.95;;;16.40;94.50;;;;;;5072061;28;20024;-74
2021/08/18 03:14:34;;;;;;;22.90;18.13;;;16.30;94.40;;;;;;5080653;28;20058;-74
2021/08/18 03:17:00;;;;;;;30.92;21.25;;;16.40;94.50;;;;;;5089090;28;20020;-74
2021/08/18 03:19:25;;;;;;;25.52;19.80;;;16.40;94.50;;;;;;5070341;28;20086;-74
2021/08/18 03:21:51;;;;;;;38.63;23.15;;;16.40;94.50;;;;;;5095554;28;20106;-74
2021/08/18 03:24:17;;;;;;;29.88;20.88;;;16.40;94.50;;;;;;5055740;28;20025;-74
2021/08/18 03:26:43;;;;;;;36.10;23.92;;;16.40;94.50;;;;;;5078392;28;20619;-74
2021/08/18 03:29:09;;;;;;;27.42;19.65;;;16.40;94.50;;;;;;5090121;28;20054;-74
2021/08/18 03:31:35;;;;;;;30.73;21.30;;;16.40;94.50;;;;;;5104524;28;20115;-74
2021/08/18 03:34:01;;;;;;;24.40;18.80;;;16.40;94.50;;;;;;5059638;28;20107;-75
2021/08/18 03:36:28;;;;;;;29.55;21.55;;;16.40;94.50;;;;;;5050731;28;20127;-74
2021/08/18 03:38:53;;;;;;;31.33;22.35;;;16.40;94.50;;;;;;5096267;28;20024;-74
2021/08/18 03:41:19;;;;;;;36.35;22.58;;;16.50;94.80;;;;;;5109148;28;20115;-74
2021/08/18 03:43:45;;;;;;;34.85;22.88;;;16.50;94.50;;;;;;5066376;28;20427;-74
2021/08/18 03:46:11;;;;;;;36.80;24.50;;;16.50;94.50;;;;;;5053896;28;20032;-74
2021/08/18 03:48:37;;;;;;;31.98;22.40;;;16.40;94.50;;;;;;5090966;28;20480;-74
2021/08/18 03:51:03;;;;;;;35.88;24.33;;;16.40;94.50;;;;;;5090727;28;20044;-75
2021/08/18 03:53:28;;;;;;;28.42;21.45;;;16.40;94.50;;;;;;5084361;28;20039;-74
2021/08/18 03:55:54;;;;;;;33.28;21.98;;;16.50;94.60;;;;;;5074619;28;20025;-74
2021/08/18 03:58:20;;;;;;;33.58;23.40;;;16.40;94.50;;;;;;5061378;28;20111;-74
2021/08/18 04:00:45;;;;;;;28.35;21.17;;;16.50;94.60;;;;;;5089790;28;20032;-74
2021/08/18 04:03:11;;;;;;;33.35;23.92;;;16.50;94.60;;;;;;5108697;28;20088;-74
2021/08/18 04:05:37;;;;;;;33.80;23.58;;;16.50;94.60;;;;;;5077269;28;20024;-74
2021/08/18 04:08:06;;;;;;;29.58;22.30;;;16.50;94.60;;;;;;5070847;28;20484;-75
2021/08/18 04:10:32;;;;;;;33.13;24.08;;;16.50;94.50;;;;;;5082187;28;20073;-74
2021/08/18 04:12:59;;;;;;;37.30;25.88;;;16.50;94.50;;;;;;5081341;28;20481;-75
2021/08/18 04:15:36;;;;;;;34.28;24.55;;;16.40;94.50;;;;;;5087022;28;20098;-74
2021/08/18 04:18:02;;;;;;;41.70;27.20;;;16.50;94.60;;;;;;5087704;28;20036;-74
2021/08/18 04:20:28;;;;;;;35.80;24.08;;;16.40;94.60;;;;;;5077054;28;20032;-74
2021/08/18 04:22:54;;;;;;;36.88;26.20;;;16.40;94.60;;;;;;5097606;28;20035;-74
2021/08/18 04:25:20;;;;;;;41.80;27.50;;;16.40;94.60;;;;;;5111985;28;20032;-74
2021/08/18 04:27:46;;;;;;;32.17;23.17;;;16.50;94.60;;;;;;5064025;28;20054;-75
2021/08/18 04:30:14;;;;;;;36.15;26.33;;;16.50;94.60;;;;;;5073805;28;20040;-75
2021/08/18 04:32:40;;;;;;;33.40;24.98;;;16.50;94.60;;;;;;5107619;28;20024;-74
2021/08/18 04:35:08;;;;;;;38.42;28.00;;;16.50;94.60;;;;;;5065887;28;20035;-74
2021/08/18 04:37:37;;;;;;;34.97;24.23;;;16.50;94.60;;;;;;5077341;28;20103;-74
2021/08/18 04:40:09;;;;;;;40.50;26.52;;;16.50;94.60;;;;;;5058828;28;20304;-73
2021/08/18 04:42:36;;;;;;;36.55;25.95;;;16.50;94.90;;;;;;5086151;28;20110;-73
2021/08/18 04:45:03;;;;;;;43.83;29.15;;;16.50;94.60;;;;;;5062140;28;20067;-73
2021/08/18 04:47:29;;;;;;;41.80;28.95;;;16.50;94.60;;;;;;5083490;28;20069;-74
2021/08/18 04:49:54;;;;;;;49.15;33.17;;;16.50;94.60;;;;;;5062030;28;20027;-74
2021/08/18 04:52:20;;;;;;;55.67;34.10;;;16.50;94.60;;;;;;5081892;28;20111;-74
2021/08/18 04:54:46;;;;;;;53.30;33.25;;;16.60;94.90;;;;;;5053094;28;20028;-74
2021/08/18 04:57:11;;;;;;;49.10;32.05;;;16.50;94.60;;;;;;5060513;28;20380;-74
2021/08/18 04:59:37;;;;;;;47.10;31.17;;;16.50;94.90;;;;;;5063478;28;20043;-74
2021/08/18 05:02:02;;;;;;;51.75;34.58;;;16.50;94.60;;;;;;5089980;28;20070;-74
2021/08/18 05:04:28;;;;;;;47.47;33.17;;;16.50;94.60;;;;;;5075233;28;20036;-73
2021/08/18 05:06:54;;;;;;;61.95;37.15;;;16.60;94.70;;;;;;5086764;28;20384;-74
2021/08/18 05:09:19;;;;;;;51.53;33.28;;;16.60;94.70;;;;;;5075158;28;20065;-74
2021/08/18 05:11:45;;;;;;;46.72;31.25;;;16.60;94.70;;;;;;5042557;28;20039;-74
2021/08/18 05:14:11;;;;;;;51.03;31.70;;;16.60;94.70;;;;;;5060910;28;20460;-74
2021/08/18 05:16:36;;;;;;;43.03;30.15;;;16.60;94.70;;;;;;5036829;28;20061;-74
2021/08/18 05:19:02;;;;;;;48.00;32.95;;;16.60;94.70;;;;;;5061697;28;20528;-74
2021/08/18 05:21:28;;;;;;;45.95;31.25;;;16.60;94.70;;;;;;5089806;28;20033;-74
2021/08/18 05:23:54;;;;;;;44.22;30.77;;;16.60;94.70;;;;;;5088768;28;20036;-74
2021/08/18 05:26:19;;;;;;;50.03;33.20;;;16.60;94.70;;;;;;5059469;28;20040;-74
2021/08/18 05:28:45;;;;;;;53.42;32.83;;;16.70;94.70;;;;;;5057436;28;20078;-74
2021/08/18 05:31:10;;;;;;;53.33;35.88;;;16.70;94.70;;;;;;5054857;28;20485;-74
2021/08/18 05:33:36;;;;;;;48.28;33.95;;;16.70;94.60;;;;;;5079218;28;20065;-74
2021/08/18 05:36:04;;;;;;;48.45;33.40;;;16.70;94.60;;;;;;5070105;28;20481;-74
2021/08/18 05:38:29;;;;;;;50.97;34.03;;;16.70;94.60;;;;;;5105584;28;20110;-74
2021/08/18 05:40:55;;;;;;;55.38;36.53;;;16.70;94.60;;;;;;5090975;28;20115;-74
2021/08/18 05:43:21;;;;;;;46.95;34.33;;;16.70;94.60;;;;;;5039225;28;20477;-74
2021/08/18 05:45:46;;;;;;;44.72;31.92;;;16.70;94.60;;;;;;5091744;28;20110;-75
2021/08/18 05:48:12;;;;;;;56.00;36.35;;;16.80;94.60;;;;;;5077924;28;20499;-75
2021/08/18 05:50:38;;;;;;;60.75;36.90;;;16.80;94.60;;;;;;5084343;28;20519;-75
2021/08/18 05:53:03;;;;;;;50.75;33.95;;;16.80;94.60;;;;;;5092718;28;20446;-75
2021/08/18 05:55:29;;;;;;;67.30;42.03;;;16.80;94.60;;;;;;5096027;28;20520;-75
2021/08/18 05:57:54;;;;;;;55.28;36.78;;;16.90;94.60;;;;;;5075079;28;20063;-75
2021/08/18 06:00:20;;;;;;;59.25;38.10;;;16.90;94.60;;;;;;5065536;28;20021;-75
2021/08/18 06:02:46;;;;;;;82.00;43.58;;;16.90;94.60;;;;;;5084086;28;20027;-75
2021/08/18 06:05:11;;;;;;;55.45;37.33;;;16.90;94.60;;;;;;5097159;28;20024;-75
2021/08/18 06:07:37;;;;;;;76.95;42.75;;;16.90;94.60;;;;;;5056001;28;20081;-75
2021/08/18 06:10:03;;;;;;;62.88;38.88;;;16.90;94.60;;;;;;5078336;28;20070;-75
2021/08/18 06:12:29;;;;;;;81.60;43.50;;;17.00;94.60;;;;;;5065861;28;20043;-75
2021/08/18 06:14:54;;;;;;;61.13;39.53;;;17.00;94.60;;;;;;5058998;28;20024;-75
2021/08/18 06:17:20;;;;;;;64.82;40.95;;;16.90;94.60;;;;;;5095234;28;21700;-75
2021/08/18 06:19:46;;;;;;;60.83;39.33;;;17.00;94.60;;;;;;5051233;28;20037;-75
2021/08/18 06:22:11;;;;;;;73.25;43.20;;;16.90;94.60;;;;;;5073486;28;20188;-75
2021/08/18 06:24:43;;;;;;;66.00;41.95;;;17.00;94.60;;;;;;5114306;28;20456;-75
2021/08/18 06:27:12;;;;;;;59.30;37.53;;;17.00;94.70;;;;;;5068975;28;20093;-75
2021/08/18 06:29:38;;;;;;;64.35;40.78;;;17.00;94.60;;;;;;5084979;28;20051;-75
2021/08/18 06:32:05;;;;;;;63.75;40.83;;;17.00;94.60;;;;;;5078171;28;20409;-75
2021/08/18 06:34:31;;;;;;;68.00;39.78;;;17.10;94.60;;;;;;5077528;28;20032;-75
2021/08/18 06:37:01;;;;;;;60.80;38.88;;;17.10;94.60;;;;;;5086250;28;20024;-75
2021/08/18 06:39:29;;;;;;;62.70;38.50;;;17.20;94.60;;;;;;5089721;28;20037;-75
2021/08/18 06:41:54;;;;;;;60.20;38.40;;;17.20;94.60;;;;;;5097953;28;20024;-75
2021/08/18 06:44:20;;;;;;;51.80;35.05;;;17.20;94.50;;;;;;5044180;28;20033;-75
2021/08/18 06:46:46;;;;;;;58.45;35.95;;;17.20;94.50;;;;;;5073184;28;20036;-75
2021/08/18 06:49:11;;;;;;;43.58;31.95;;;17.30;94.50;;;;;;5075815;28;20073;-75
2021/08/18 06:51:37;;;;;;;54.08;35.90;;;17.30;94.40;;;;;;5084978;28;20025;-75
2021/08/18 06:54:03;;;;;;;53.15;35.15;;;17.30;94.40;;;;;;5072625;28;20090;-75
2021/08/18 06:56:28;;;;;;;48.08;34.53;;;17.40;94.40;;;;;;5093671;28;20027;-76
2021/08/18 06:58:54;;;;;;;49.22;34.35;;;17.50;94.30;;;;;;5077765;28;20043;-76
2021/08/18 07:01:19;;;;;;;52.53;34.03;;;17.50;94.30;;;;;;5064870;28;20043;-76
2021/08/18 07:03:45;;;;;;;44.40;32.38;;;17.60;94.30;;;;;;5074869;28;20059;-76
2021/08/18 07:06:11;;;;;;;44.90;31.48;;;17.70;94.10;;;;;;5088635;28;20038;-76
2021/08/18 07:08:36;;;;;;;38.60;28.40;;;17.70;94.00;;;;;;5075200;28;20465;-76
2021/08/18 07:11:02;;;;;;;44.97;32.63;;;17.70;93.90;;;;;;5057339;28;20036;-76
2021/08/18 07:13:27;;;;;;;40.00;30.60;;;17.70;93.90;;;;;;5073281;28;20029;-76
2021/08/18 07:15:53;;;;;;;42.45;30.33;;;17.70;93.90;;;;;;5075495;28;20123;-76
2021/08/18 07:18:19;;;;;;;35.83;27.35;;;17.70;93.90;;;;;;5094868;28;20076;-76
2021/08/18 07:20:44;;;;;;;38.15;28.95;;;17.80;93.90;;;;;;5061747;28;20380;-76
2021/08/18 07:23:10;;;;;;;37.05;27.23;;;17.80;93.90;;;;;;5072033;28;20373;-76
2021/08/18 07:25:36;;;;;;;34.13;25.42;;;17.80;93.90;;;;;;5077541;28;20032;-76
2021/08/18 07:28:02;;;;;;;34.03;26.23;;;17.80;93.90;;;;;;5090708;28;20473;-76
2021/08/18 07:30:27;;;;;;;30.95;24.17;;;17.90;93.80;;;;;;5082141;28;20044;-77
2021/08/18 07:32:53;;;;;;;31.63;24.35;;;17.90;93.80;;;;;;5055196;28;20025;-78
2021/08/18 07:35:19;;;;;;;28.38;22.77;;;17.90;93.70;;;;;;5056816;28;20029;-78
2021/08/18 07:37:44;;;;;;;31.20;22.83;;;17.90;93.60;;;;;;5075421;28;20028;-77
2021/08/18 07:40:10;;;;;;;28.08;23.02;;;17.90;93.60;;;;;;5078126;28;20027;-77
2021/08/18 07:42:36;;;;;;;29.00;21.10;;;17.90;93.50;;;;;;5113145;28;20035;-77
2021/08/18 07:45:03;;;;;;;28.13;21.65;;;17.80;93.60;;;;;;5113875;28;20035;-78
2021/08/18 07:47:28;;;;;;;22.60;18.08;;;17.80;93.60;;;;;;5113758;28;20024;-77
2021/08/18 07:49:54;;;;;;;24.77;20.00;;;17.80;93.60;;;;;;5095052;28;20062;-77
2021/08/18 07:52:19;;;;;;;22.00;18.05;;;17.70;93.60;;;;;;5095693;28;20038;-77
2021/08/18 07:54:46;;;;;;;22.15;17.65;;;17.70;93.70;;;;;;5113823;28;20028;-78
2021/08/18 07:57:13;;;;;;;23.13;17.25;;;17.80;93.70;;;;;;5113630;28;20502;-78
2021/08/18 07:59:39;;;;;;;19.85;16.92;;;17.80;93.70;;;;;;5113612;28;20016;-77
2021/08/18 08:02:04;;;;;;;19.25;15.80;;;17.80;93.60;;;;;;5113585;28;20437;-77
2021/08/18 08:04:30;;;;;;;18.20;15.57;;;17.90;93.50;;;;;;5095678;28;20031;-77
2021/08/18 08:06:56;;;;;;;15.45;13.70;;;17.90;93.40;;;;;;5113491;28;20031;-77
2021/08/18 08:09:21;;;;;;;17.80;13.38;;;17.90;93.40;;;;;;5094973;28;20056;-77
2021/08/18 08:11:47;;;;;;;15.15;12.32;;;17.90;93.30;;;;;;5094898;28;20032;-78
2021/08/18 08:14:13;;;;;;;12.73;11.40;;;17.80;93.30;;;;;;5113259;28;20059;-77
2021/08/18 08:16:38;;;;;;;14.15;11.60;;;17.90;93.20;;;;;;5102855;28;20072;-80
2021/08/18 08:19:05;;;;;;;12.23;10.90;;;17.90;93.20;;;;;;5113079;28;20028;-78
2021/08/18 08:21:31;;;;;;;14.02;10.88;;;18.00;93.00;;;;;;5113345;28;20027;-79
2021/08/18 08:23:57;;;;;;;12.07;10.38;;;18.00;93.00;;;;;;5113281;28;20584;-79
2021/08/18 08:26:23;;;;;;;12.63;10.25;;;18.10;92.90;;;;;;5095115;28;20122;-79
2021/08/18 08:28:49;;;;;;;13.27;9.27;;;18.20;92.80;;;;;;5113764;28;20075;-79
2021/08/18 08:31:14;;;;;;;11.02;8.93;;;18.20;92.60;;;;;;5113576;28;20031;-79
2021/08/18 08:33:40;;;;;;;9.75;8.55;;;18.30;92.50;;;;;;5095274;28;20028;-79
2021/08/18 08:36:06;;;;;;;9.63;8.63;;;18.30;92.40;;;;;;5095233;28;20019;-79
2021/08/18 08:38:32;;;;;;;9.05;7.05;;;18.40;92.40;;;;;;5113579;28;20437;-79
2021/08/18 08:40:57;;;;;;;7.95;7.13;;;18.40;92.30;;;;;;5095114;28;20038;-79
2021/08/18 08:43:24;;;;;;;7.85;6.43;;;18.50;92.20;;;;;;5094567;28;20106;-74
2021/08/18 08:45:50;;;;;;;7.97;6.70;;;18.60;92.20;;;;;;5094225;28;20038;-74
2021/08/18 08:48:18;;;;;;;8.13;5.70;;;18.60;92.10;;;;;;5112104;28;20024;-74
2021/08/18 08:50:47;;;;;;;5.97;5.10;;;18.60;91.80;;;;;;5082192;28;20464;-74
2021/08/18 08:53:13;;;;;;;5.47;4.45;;;18.60;91.60;;;;;;5091990;28;20305;-74
2021/08/18 08:55:40;;;;;;;4.10;3.28;;;18.50;91.50;;;;;;5114864;28;20445;-74
2021/08/18 08:58:05;;;;;;;3.75;2.70;;;18.60;91.40;;;;;;5116298;28;20027;-74
2021/08/18 09:00:31;;;;;;;2.47;2.13;;;18.50;91.30;;;;;;5116074;28;20361;-75
2021/08/18 09:03:07;;;;;;;3.50;2.20;;;18.60;91.00;;;;;;5116206;28;20031;-74
2021/08/18 09:05:33;;;;;;;2.60;1.88;;;18.50;90.50;;;;;;5116078;28;20031;-74
2021/08/18 09:07:59;;;;;;;2.72;2.20;;;18.50;90.40;;;;;;5105446;28;20028;-74
2021/08/18 09:10:26;;;;;;;1.95;1.85;;;18.50;90.40;;;;;;5089639;28;20027;-74
2021/08/18 09:13:07;;;;;;;2.30;2.10;;;18.50;90.60;;;;;;5115850;28;20063;-74
2021/08/18 09:15:32;;;;;;;3.22;1.85;;;18.50;90.60;;;;;;5115643;28;20108;-74
2021/08/18 09:17:58;;;;;;;2.30;2.10;;;18.50;90.70;;;;;;5115718;28;20065;-74
2021/08/18 09:20:30;;;;;;;3.70;1.80;;;18.50;90.80;;;;;;5115582;28;20035;-74
2021/08/18 09:22:59;;;;;;;1.75;1.50;;;18.50;90.60;;;;;;5115827;28;20023;-75
2021/08/18 09:25:29;;;;;;;2.72;1.88;;;18.50;90.50;;;;;;5102103;28;20028;-74
2021/08/18 09:27:56;;;;;;;2.08;1.80;;;18.50;90.30;;;;;;5109713;28;20059;-74
2021/08/18 09:30:26;;;;;;;2.17;1.58;;;18.60;90.50;;;;;;5097026;28;20046;-74
2021/08/18 09:32:53;;;;;;;3.08;1.80;;;18.50;90.50;;;;;;5115518;28;20019;-74
2021/08/18 09:35:21;;;;;;;6.18;1.77;;;18.50;90.40;;;;;;5096948;28;20032;-74
2021/08/18 09:37:54;;;;;;;2.13;1.90;;;18.50;90.50;;;;;;5115183;28;20560;-74
2021/08/18 09:40:31;;;;;;;1.88;1.77;;;18.50;90.60;;;;;;5115276;28;20543;-74
2021/08/18 09:43:09;;;;;;;6.80;2.17;;;18.50;90.70;;;;;;5086230;28;20028;-74
2021/08/18 09:45:38;;;;;;;2.33;1.60;;;18.50;90.60;;;;;;5056807;28;20267;-74
2021/08/18 09:48:06;;;;;;;2.22;1.98;;;18.40;90.60;;;;;;5057071;28;20028;-74
2021/08/18 09:50:43;;;;;;;1.63;1.50;;;18.40;90.60;;;;;;5056342;28;20388;-74
2021/08/18 09:53:19;;;;;;;2.45;1.40;;;18.40;90.60;;;;;;5082720;28;20503;-74
2021/08/18 09:56:04;;;;;;;5.03;2.30;;;18.30;90.60;;;;;;5096860;28;20047;-74
2021/08/18 09:58:57;;;;;;;2.53;1.40;;;18.30;90.80;;;;;;5093444;28;20114;-74
2021/08/18 10:01:22;;;;;;;3.22;1.52;;;18.30;90.60;;;;;;5054037;28;20374;-74
2021/08/18 10:03:52;;;;;;;2.80;1.42;;;18.30;90.70;;;;;;5056361;28;20032;-74
2021/08/18 10:06:18;;;;;;;1.50;1.40;;;18.30;90.70;;;;;;5092895;28;20023;-74
2021/08/18 10:08:46;;;;;;;1.67;1.58;;;18.30;90.70;;;;;;5114786;28;20035;-75
2021/08/18 10:11:15;;;;;;;2.08;1.50;;;18.50;90.50;;;;;;5096486;28;20036;-74
2021/08/18 10:13:41;;;;;;;2.35;1.52;;;18.60;90.30;;;;;;5097069;28;20638;-74
2021/08/18 10:16:08;;;;;;;1.70;1.60;;;18.60;90.30;;;;;;5084653;28;20029;-74
2021/08/18 10:18:46;;;;;;;3.13;1.48;;;18.70;89.90;;;;;;5056412;28;20078;-74
2021/08/18 10:21:22;;;;;;;2.72;1.73;;;18.70;89.00;;;;;;5057035;28;20032;-74
2021/08/18 10:23:51;;;;;;;2.33;2.13;;;18.70;88.90;;;;;;5084937;28;20034;-74
2021/08/18 10:26:35;;;;;;;4.50;1.60;;;18.70;89.10;;;;;;5114556;28;20554;-74
2021/08/18 10:29:07;;;;;;;2.67;2.03;;;18.60;89.80;;;;;;5114487;28;20039;-79
2021/08/18 10:31:48;;;;;;;2.35;2.15;;;18.70;89.90;;;;;;5115337;28;20023;-79
2021/08/18 10:34:22;;;;;;;1.58;1.48;;;18.70;89.10;;;;;;5107314;28;20031;-79
2021/08/18 10:36:51;;;;;;;2.35;1.60;;;18.70;89.00;;;;;;5094924;28;20020;-78
2021/08/18 10:39:19;;;;;;;2.15;1.90;;;18.70;88.80;;;;;;5103210;28;20031;-74
2021/08/18 10:42:03;;;;;;;2.10;1.90;;;18.80;88.90;;;;;;5095712;28;20030;-74
2021/08/18 10:44:37;;;;;;;3.17;1.77;;;18.80;88.60;;;;;;5086638;28;20028;-74
2021/08/18 10:47:21;;;;;;;3.97;1.73;;;18.90;87.90;;;;;;5078597;28;20097;-76
2021/08/18 10:50:12;;;;;;;2.22;1.70;;;18.90;87.80;;;;;;5114008;28;20532;-74
2021/08/18 10:52:45;;;;;;;2.28;1.85;;;19.00;87.80;;;;;;5059264;28;20755;-74
2021/08/18 10:55:12;;;;;;;2.58;2.38;;;19.10;87.30;;;;;;5092753;28;20023;-75
2021/08/18 10:57:58;;;;;;;4.13;2.00;;;19.20;87.00;;;;;;5105330;28;20020;-74
2021/08/18 11:00:36;;;;;;;5.78;3.38;;;19.40;86.60;;;;;;5087031;28;20476;-74
2021/08/18 11:03:04;;;;;;;4.07;3.75;;;19.50;86.00;;;;;;5093338;28;20020;-74
2021/08/18 11:05:51;;;;;;;5.53;4.10;;;19.60;85.60;;;;;;5106816;28;20027;-74
2021/08/18 11:08:20;;;;;;;7.95;5.50;;;19.80;85.80;;;;;;5108704;28;20044;-74
2021/08/18 11:10:55;;;;;;;8.10;6.95;;;20.00;85.70;;;;;;5112502;28;20395;-73
2021/08/18 11:13:36;;;;;;;8.52;7.32;;;20.10;85.60;;;;;;5092628;28;20027;-74
2021/08/18 11:16:27;;;;;;;10.20;8.73;;;20.30;85.30;;;;;;5089206;28;20032;-76
2021/08/18 11:18:57;;;;;;;9.80;8.90;;;20.40;84.70;;;;;;5030064;28;20041;-75
2021/08/18 11:21:30;;;;;;;10.32;9.20;;;20.30;84.70;;;;;;5046277;28;20064;-75
2021/08/18 11:24:11;;;;;;;12.13;9.40;;;20.40;84.70;;;;;;5046150;28;20047;-75
2021/08/18 11:26:41;;;;;;;10.20;9.15;;;20.30;84.90;;;;;;5035071;28;20057;-75
2021/08/18 11:29:12;;;;;;;10.70;9.13;;;20.30;85.00;;;;;;5029216;28;20044;-75
2021/08/18 11:31:53;;;;;;;9.77;8.68;;;20.30;85.80;;;;;;5049833;28;20071;-75
2021/08/18 11:34:23;;;;;;;10.70;9.60;;;20.20;85.70;;;;;;5040028;28;20056;-75
2021/08/18 11:36:51;;;;;;;10.95;9.02;;;20.10;86.60;;;;;;5051937;28;20021;-75
2021/08/18 11:39:17;;;;;;;7.68;6.47;;;20.00;86.70;;;;;;5048398;28;20036;-75
2021/08/18 11:41:46;;;;;;;12.02;7.93;;;20.00;86.70;;;;;;5070344;28;20116;-75
2021/08/18 11:44:16;;;;;;;;;;;20.10;86.90;;;;;;5070569;28;20119;-74
2021/08/18 11:46:41;;;;;;;7.13;6.10;;;20.20;86.70;;;;;;5052707;28;19908;-74
2021/08/18 11:49:10;;;;;;;9.35;6.40;;;20.30;86.50;;;;;;5052517;28;20078;-74
2021/08/18 11:51:36;;;;;;;;;;;20.50;86.00;;;;;;5041860;28;20500;-74
2021/08/18 11:54:02;;;;;;;8.52;5.70;;;20.60;85.40;;;;;;5055161;28;19912;-75
2021/08/18 11:56:29;;;;;;;10.77;5.82;;;20.70;85.20;;;;;;5052435;28;20029;-75
2021/08/18 11:59:01;;;;;;;8.63;7.15;;;20.70;84.80;;;;;;5069441;28;20048;-74
2021/08/18 12:01:27;;;;;;;7.90;6.78;;;20.90;84.60;;;;;;5069932;28;20040;-74
2021/08/18 12:03:53;;;;;;;8.48;7.10;;;20.90;84.40;;;;;;5110716;28;20043;-75
2021/08/18 12:06:30;;;;;;;8.80;5.78;;;20.90;84.60;;;;;;5112494;28;20028;-74
2021/08/18 12:08:56;;;;;;;13.50;8.60;;;20.80;84.40;;;;;;5064296;28;20033;-75
2021/08/18 12:11:35;;;;;;;12.60;7.68;;;20.70;85.10;;;;;;5081804;28;20082;-75
2021/08/18 12:14:08;;;;;;;;;;;20.60;85.90;;;;;;5070504;28;20024;-74
2021/08/18 12:16:33;;;;;;;16.55;9.15;;;20.50;86.00;;;;;;5091160;28;20364;-75
2021/08/18 12:19:20;;;;;;;10.23;8.88;;;20.30;86.40;;;;;;5112141;28;20051;-75
2021/08/18 12:22:00;;;;;;;14.60;10.45;;;20.30;86.80;;;;;;5112169;28;20035;-75
2021/08/18 12:24:28;;;;;;;10.40;9.30;;;20.20;87.50;;;;;;5111359;28;20384;-75
2021/08/18 12:26:59;;;;;;;13.02;10.32;;;20.10;87.80;;;;;;5095676;28;20027;-75
2021/08/18 12:29:28;;;;;;;11.40;8.90;;;20.00;87.80;;;;;;5111032;28;20109;-77
2021/08/18 12:32:01;;;;;;;;;;;20.00;87.90;;;;;;5094914;28;20015;-77
2021/08/18 12:34:35;;;;;;;18.02;9.43;;;20.00;87.50;;;;;;5117169;28;19908;-77
2021/08/18 12:37:07;;;;;;;12.32;9.25;;;20.10;87.40;;;;;;5116290;28;20019;-76
2021/08/18 12:39:35;;;;;;;12.95;9.07;;;20.20;86.80;;;;;;5116457;28;20456;-76